createdAt,value
2023-05-07T00:00:03.865Z,11.50
2023-05-07T00:01:03.495Z,11.60
2023-05-07T00:02:04.105Z,11.50
2023-05-07T00:03:03.693Z,11.50
2023-05-07T00:04:06.402Z,11.50
2023-05-07T00:05:06.198Z,11.60
2023-05-07T00:06:03.993Z,11.50
2023-05-07T00:07:03.578Z,11.60
2023-05-07T00:08:05.686Z,11.60
2023-05-07T00:09:03.257Z,11.60
2023-05-07T00:10:04.226Z,11.50
2023-05-07T00:11:05.872Z,11.50
2023-05-07T00:12:03.275Z,11.50
2023-05-07T00:13:03.914Z,11.50
2023-05-07T00:15:03.217Z,11.50
2023-05-07T00:16:03.841Z,11.50
2023-05-07T00:18:03.202Z,11.50
2023-05-07T00:19:03.825Z,11.50
2023-05-07T00:20:05.992Z,11.50
2023-05-07T00:21:03.538Z,11.40
2023-05-07T00:22:05.721Z,11.50
2023-05-07T00:23:08.436Z,11.40
2023-05-07T00:24:03.855Z,11.50
2023-05-07T00:25:03.536Z,11.50
2023-05-07T00:26:04.146Z,11.40
2023-05-07T00:27:06.296Z,11.40
2023-05-07T00:28:03.774Z,11.40
2023-05-07T00:29:03.320Z,11.40
2023-05-07T00:30:03.856Z,11.40
2023-05-07T00:31:11.181Z,11.40
2023-05-07T00:32:03.716Z,11.40
2023-05-07T00:33:05.945Z,11.40
2023-05-07T00:34:03.541Z,11.40
2023-05-07T00:35:03.228Z,11.40
2023-05-07T00:36:09.021Z,11.40
2023-05-07T00:37:04.801Z,11.40
2023-05-07T00:38:03.890Z,11.40
2023-05-07T00:39:03.537Z,11.40
2023-05-07T00:40:05.693Z,11.30
2023-05-07T00:41:04.171Z,11.40
2023-05-07T00:42:08.847Z,11.30
2023-05-07T00:43:03.305Z,11.30
2023-05-07T00:44:03.902Z,11.40
2023-05-07T00:45:08.569Z,11.30
2023-05-07T00:46:04.156Z,11.30
2023-05-07T00:47:03.758Z,11.30
2023-05-07T00:48:03.361Z,11.30
2023-05-07T00:49:06.551Z,11.30
2023-05-07T00:50:04.066Z,11.30
2023-05-07T00:51:08.811Z,11.30
2023-05-07T00:52:03.298Z,11.30
2023-05-07T00:53:03.930Z,11.30
2023-05-07T00:54:06.084Z,11.30
2023-05-07T00:55:03.483Z,11.30
2023-05-07T00:56:04.028Z,11.30
2023-05-07T00:57:11.204Z,11.30
2023-05-07T00:58:08.959Z,11.30
2023-05-07T01:00:04.062Z,11.30
2023-05-07T01:02:03.268Z,11.30
2023-05-07T01:03:03.217Z,11.30
2023-05-07T01:04:08.832Z,11.30
2023-05-07T01:05:04.020Z,11.30
2023-05-07T01:06:03.374Z,11.30
2023-05-07T01:07:03.760Z,11.30
2023-05-07T01:08:03.420Z,11.30
2023-05-07T01:09:04.137Z,11.30
2023-05-07T01:10:03.736Z,11.20
2023-05-07T01:11:03.345Z,11.30
2023-05-07T01:12:04.010Z,11.30
2023-05-07T01:13:03.981Z,11.30
2023-05-07T01:14:06.251Z,11.30
2023-05-07T01:15:03.674Z,11.30
2023-05-07T01:16:03.294Z,11.30
2023-05-07T01:17:03.996Z,11.30
2023-05-07T01:19:05.986Z,11.30
2023-05-07T01:20:03.388Z,11.30
2023-05-07T01:21:06.508Z,11.40
2023-05-07T01:22:03.998Z,11.30
2023-05-07T01:23:07.428Z,11.30
2023-05-07T01:24:03.913Z,11.30
2023-05-07T01:25:06.168Z,11.30
2023-05-07T01:26:03.645Z,11.30
2023-05-07T01:27:03.254Z,11.30
2023-05-07T01:28:03.874Z,11.30
2023-05-07T01:29:06.019Z,11.40
2023-05-07T01:30:03.407Z,11.40
2023-05-07T01:31:04.036Z,11.30
2023-05-07T01:32:03.805Z,11.40
2023-05-07T01:33:03.397Z,11.40
2023-05-07T01:34:06.582Z,11.40
2023-05-07T01:35:06.606Z,11.30
2023-05-07T01:36:04.087Z,11.30
2023-05-07T01:37:03.737Z,11.40
2023-05-07T01:39:04.052Z,11.30
2023-05-07T01:40:08.908Z,11.40
2023-05-07T01:41:06.461Z,11.40
2023-05-07T01:42:03.948Z,11.40
2023-05-07T01:44:05.752Z,11.40
2023-05-07T01:45:03.156Z,11.40
2023-05-07T01:46:03.803Z,11.30
2023-05-07T01:47:03.469Z,11.30
2023-05-07T01:48:04.096Z,11.30
2023-05-07T01:50:03.489Z,11.30
2023-05-07T01:51:03.362Z,11.30
2023-05-07T01:52:06.513Z,11.30
2023-05-07T01:53:04.097Z,11.30
2023-05-07T01:54:06.454Z,11.20
2023-05-07T01:55:03.871Z,11.30
2023-05-07T01:56:09.187Z,11.30
2023-05-07T01:57:03.709Z,11.30
2023-05-07T01:58:03.276Z,11.20
2023-05-07T01:59:03.833Z,11.20
2023-05-07T02:00:05.963Z,11.20
2023-05-07T02:01:03.463Z,11.20
2023-05-07T02:02:06.569Z,11.20
2023-05-07T02:04:06.673Z,11.20
2023-05-07T02:06:03.917Z,11.20
2023-05-07T02:07:06.090Z,11.20
2023-05-07T02:08:03.534Z,11.20
2023-05-07T02:09:03.148Z,11.20
2023-05-07T02:10:06.244Z,11.20
2023-05-07T02:11:03.626Z,11.20
2023-05-07T02:12:03.232Z,11.20
2023-05-07T02:13:06.417Z,11.20
2023-05-07T02:14:06.570Z,11.20
2023-05-07T02:15:04.178Z,11.20
2023-05-07T02:17:08.334Z,11.20
2023-05-07T02:18:03.765Z,11.20
2023-05-07T02:19:06.008Z,11.20
2023-05-07T02:20:05.978Z,11.20
2023-05-07T02:21:03.382Z,11.20
2023-05-07T02:22:06.430Z,11.20
2023-05-07T02:23:03.913Z,11.20
2023-05-07T02:24:03.634Z,11.20
2023-05-07T02:25:03.265Z,11.20
2023-05-07T02:26:06.349Z,11.10
2023-05-07T02:27:03.800Z,11.10
2023-05-07T02:28:03.444Z,11.10
2023-05-07T02:29:04.091Z,11.10
2023-05-07T02:31:05.808Z,11.10
2023-05-07T02:32:03.295Z,11.10
2023-05-07T02:33:03.879Z,11.10
2023-05-07T02:34:06.123Z,11.10
2023-05-07T02:35:03.671Z,11.10
2023-05-07T02:36:03.288Z,11.00
2023-05-07T02:37:06.481Z,11.10
2023-05-07T02:38:06.648Z,11.10
2023-05-07T02:39:06.673Z,11.10
2023-05-07T02:40:04.086Z,11.10
2023-05-07T02:41:03.660Z,11.00
2023-05-07T02:42:03.221Z,11.10
2023-05-07T02:43:03.887Z,11.00
2023-05-07T02:44:06.382Z,11.00
2023-05-07T02:45:03.786Z,11.00
2023-05-07T02:46:03.382Z,11.00
2023-05-07T02:47:04.012Z,11.00
2023-05-07T02:48:06.166Z,11.00
2023-05-07T02:49:03.817Z,11.00
2023-05-07T02:50:03.370Z,11.00
2023-05-07T02:51:04.007Z,11.00
2023-05-07T02:53:04.178Z,11.00
2023-05-07T02:54:06.600Z,11.00
2023-05-07T02:55:04.144Z,11.00
2023-05-07T02:56:06.414Z,10.90
2023-05-07T02:57:03.856Z,10.90
2023-05-07T02:59:04.005Z,10.90
2023-05-07T03:00:08.760Z,10.90
2023-05-07T03:01:06.042Z,10.90
2023-05-07T03:02:05.997Z,10.90
2023-05-07T03:03:03.527Z,10.90
2023-05-07T03:04:04.167Z,10.90
2023-05-07T03:06:05.979Z,10.80
2023-05-07T03:07:03.509Z,10.80
2023-05-07T03:08:03.725Z,10.80
2023-05-07T03:09:03.959Z,10.80
2023-05-07T03:11:06.622Z,10.70
2023-05-07T03:12:04.050Z,10.80
2023-05-07T03:13:06.309Z,10.80
2023-05-07T03:14:04.134Z,10.80
2023-05-07T03:15:03.725Z,10.80
2023-05-07T03:16:06.082Z,10.70
2023-05-07T03:17:06.316Z,10.70
2023-05-07T03:18:06.400Z,10.70
2023-05-07T03:19:04.114Z,10.70
2023-05-07T03:20:03.854Z,10.70
2023-05-07T03:21:06.066Z,10.70
2023-05-07T03:22:06.121Z,10.70
2023-05-07T03:23:12.620Z,10.70
2023-05-07T03:24:04.067Z,10.70
2023-05-07T03:25:06.160Z,10.70
2023-05-07T03:26:06.236Z,10.70
2023-05-07T03:27:03.727Z,10.70
2023-05-07T03:28:05.871Z,10.70
2023-05-07T03:29:03.360Z,10.70
2023-05-07T03:30:03.929Z,10.70
2023-05-07T03:31:03.507Z,10.70
2023-05-07T03:32:03.134Z,10.70
2023-05-07T03:33:03.785Z,10.70
2023-05-07T03:34:06.048Z,10.70
2023-05-07T03:35:08.660Z,10.70
2023-05-07T03:36:05.719Z,10.70
2023-05-07T03:37:05.774Z,10.60
2023-05-07T03:38:05.830Z,10.60
2023-05-07T03:39:03.338Z,10.60
2023-05-07T03:40:04.074Z,10.60
2023-05-07T03:42:03.342Z,10.60
2023-05-07T03:43:03.917Z,10.60
2023-05-07T03:45:04.248Z,10.60
2023-05-07T03:46:06.596Z,10.60
2023-05-07T03:48:03.807Z,10.60
2023-05-07T03:50:04.190Z,10.50
2023-05-07T03:51:03.850Z,10.50
2023-05-07T03:52:03.546Z,10.50
2023-05-07T03:54:03.789Z,10.50
2023-05-07T03:56:09.057Z,10.50
2023-05-07T03:57:06.095Z,10.50
2023-05-07T03:58:03.571Z,10.50
2023-05-07T03:59:03.180Z,10.40
2023-05-07T04:00:03.887Z,10.40
2023-05-07T04:01:03.574Z,10.50
2023-05-07T04:02:05.429Z,10.50
2023-05-07T04:03:03.439Z,10.50
2023-05-07T04:04:04.163Z,10.40
2023-05-07T04:05:06.631Z,10.40
2023-05-07T04:06:08.277Z,10.40
2023-05-07T04:07:06.261Z,10.40
2023-05-07T04:08:06.330Z,10.50
2023-05-07T04:09:06.380Z,10.40
2023-05-07T04:10:03.852Z,10.40
2023-05-07T04:11:03.829Z,10.40
2023-05-07T04:12:03.468Z,10.40
2023-05-07T04:13:06.729Z,10.50
2023-05-07T04:14:05.936Z,10.40
2023-05-07T04:15:03.414Z,10.40
2023-05-07T04:16:04.071Z,10.40
2023-05-07T04:17:06.269Z,10.40
2023-05-07T04:18:03.727Z,10.50
2023-05-07T04:19:05.948Z,10.50
2023-05-07T04:20:06.048Z,10.50
2023-05-07T04:21:03.583Z,10.50
2023-05-07T04:22:05.805Z,10.50
2023-05-07T04:23:03.312Z,10.50
2023-05-07T04:24:06.427Z,10.50
2023-05-07T04:25:07.030Z,10.50
2023-05-07T04:27:09.214Z,10.50
2023-05-07T04:28:06.195Z,10.50
2023-05-07T04:29:03.610Z,10.50
2023-05-07T04:30:05.736Z,10.50
2023-05-07T04:31:03.170Z,10.50
2023-05-07T04:32:09.071Z,10.50
2023-05-07T04:33:06.375Z,10.50
2023-05-07T04:34:11.688Z,10.50
2023-05-07T04:35:03.796Z,10.60
2023-05-07T04:36:03.400Z,10.60
2023-05-07T04:37:06.591Z,10.60
2023-05-07T04:38:03.996Z,10.60
2023-05-07T04:40:03.425Z,10.60
2023-05-07T04:41:06.638Z,10.60
2023-05-07T04:43:03.567Z,10.60
2023-05-07T04:44:03.597Z,10.60
2023-05-07T04:45:03.649Z,10.60
2023-05-07T04:46:06.032Z,10.60
2023-05-07T04:47:03.660Z,10.50
2023-05-07T04:48:03.779Z,10.60
2023-05-07T04:49:03.795Z,10.60
2023-05-07T04:50:03.533Z,10.60
2023-05-07T04:51:08.182Z,10.60
2023-05-07T04:52:06.257Z,10.60
2023-05-07T04:53:03.716Z,10.60
2023-05-07T04:54:03.971Z,10.60
2023-05-07T04:55:06.236Z,10.60
2023-05-07T04:56:03.730Z,10.60
2023-05-07T04:57:04.130Z,10.60
2023-05-07T04:59:03.373Z,10.60
2023-05-07T05:00:04.046Z,10.60
2023-05-07T05:01:06.204Z,10.60
2023-05-07T05:02:03.839Z,10.60
2023-05-07T05:03:08.718Z,10.60
2023-05-07T05:04:03.506Z,10.50
2023-05-07T05:05:03.318Z,10.50
2023-05-07T05:06:03.626Z,10.50
2023-05-07T05:07:06.111Z,10.50
2023-05-07T05:08:03.636Z,10.50
2023-05-07T05:09:03.678Z,10.60
2023-05-07T05:10:05.884Z,10.60
2023-05-07T05:11:03.456Z,10.60
2023-05-07T05:12:04.217Z,10.60
2023-05-07T05:13:03.728Z,10.60
2023-05-07T05:14:03.393Z,10.60
2023-05-07T05:15:06.600Z,10.60
2023-05-07T05:16:06.820Z,10.60
2023-05-07T05:18:06.491Z,10.50
2023-05-07T05:19:09.255Z,10.60
2023-05-07T05:21:10.918Z,10.60
2023-05-07T05:22:03.676Z,10.60
2023-05-07T05:23:03.354Z,10.60
2023-05-07T05:24:04.166Z,10.60
2023-05-07T05:25:06.248Z,10.60
2023-05-07T05:26:03.824Z,10.60
2023-05-07T05:27:03.606Z,10.60
2023-05-07T05:28:05.808Z,10.60
2023-05-07T05:29:03.272Z,10.50
2023-05-07T05:30:09.020Z,10.60
2023-05-07T05:31:03.926Z,10.60
2023-05-07T05:32:06.170Z,10.50
2023-05-07T05:33:03.765Z,10.50
2023-05-07T05:34:03.533Z,10.50
2023-05-07T05:35:06.674Z,10.50
2023-05-07T05:36:05.809Z,10.50
2023-05-07T05:37:05.988Z,10.50
2023-05-07T05:38:03.446Z,10.50
2023-05-07T05:39:04.074Z,10.50
2023-05-07T05:40:06.213Z,10.50
2023-05-07T05:41:03.849Z,10.50
2023-05-07T05:42:13.551Z,10.50
2023-05-07T05:43:04.050Z,10.50
2023-05-07T05:44:03.758Z,10.50
2023-05-07T05:45:05.952Z,10.50
2023-05-07T05:46:03.543Z,9.70
2023-05-07T05:47:03.233Z,10.50
2023-05-07T05:48:04.011Z,10.50
2023-05-07T05:49:03.909Z,10.50
2023-05-07T05:50:06.412Z,10.50
2023-05-07T05:51:04.346Z,10.50
2023-05-07T05:52:03.938Z,10.50
2023-05-07T05:53:06.073Z,10.50
2023-05-07T05:54:06.097Z,10.50
2023-05-07T05:55:06.148Z,10.50
2023-05-07T05:56:03.624Z,10.50
2023-05-07T05:58:06.533Z,10.50
2023-05-07T05:59:04.031Z,10.50
2023-05-07T06:00:03.730Z,10.50
2023-05-07T06:02:09.164Z,10.50
2023-05-07T06:04:03.480Z,10.50
2023-05-07T06:05:04.140Z,10.50
2023-05-07T06:07:03.442Z,10.50
2023-05-07T06:08:11.751Z,10.50
2023-05-07T06:10:03.934Z,10.50
2023-05-07T06:11:03.593Z,10.50
2023-05-07T06:12:03.258Z,10.50
2023-05-07T06:13:03.925Z,10.60
2023-05-07T06:14:06.288Z,10.50
2023-05-07T06:15:03.730Z,10.50
2023-05-07T06:16:03.319Z,10.50
2023-05-07T06:17:06.613Z,10.50
2023-05-07T06:19:04.090Z,10.50
2023-05-07T06:20:03.700Z,10.50
2023-05-07T06:21:03.346Z,10.50
2023-05-07T06:22:06.523Z,10.40
2023-05-07T06:23:06.526Z,10.60
2023-05-07T06:24:04.000Z,10.60
2023-05-07T06:25:03.731Z,10.60
2023-05-07T06:27:06.530Z,10.60
2023-05-07T06:28:04.188Z,10.60
2023-05-07T06:29:03.783Z,10.60
2023-05-07T06:30:03.368Z,10.60
2023-05-07T06:31:06.556Z,10.50
2023-05-07T06:32:06.684Z,10.50
2023-05-07T06:33:03.596Z,10.50
2023-05-07T06:34:03.436Z,10.50
2023-05-07T06:35:04.130Z,10.50
2023-05-07T06:36:03.798Z,10.50
2023-05-07T06:37:03.337Z,10.50
2023-05-07T06:38:08.949Z,10.50
2023-05-07T06:39:05.943Z,10.50
2023-05-07T06:40:03.409Z,10.50
2023-05-07T06:41:06.554Z,10.50
2023-05-07T06:42:11.806Z,10.50
2023-05-07T06:44:04.185Z,10.50
2023-05-07T06:45:06.610Z,10.50
2023-05-07T06:46:06.684Z,10.50
2023-05-07T06:48:03.479Z,10.50
2023-05-07T06:49:03.217Z,10.50
2023-05-07T06:50:09.099Z,10.50
2023-05-07T06:51:04.053Z,10.60
2023-05-07T06:53:06.698Z,10.60
2023-05-07T06:55:06.403Z,10.60
2023-05-07T06:56:06.367Z,10.60
2023-05-07T06:57:03.942Z,10.60
2023-05-07T06:58:03.497Z,10.60
2023-05-07T06:59:06.566Z,10.60
2023-05-07T07:00:04.102Z,10.60
2023-05-07T07:01:03.670Z,10.60
2023-05-07T07:02:04.032Z,10.60
2023-05-07T07:04:04.045Z,10.60
2023-05-07T07:06:06.549Z,10.60
2023-05-07T07:07:04.138Z,10.60
2023-05-07T07:08:03.722Z,10.60
2023-05-07T07:09:03.386Z,10.60
2023-05-07T07:10:03.977Z,10.60
2023-05-07T07:11:06.185Z,10.60
2023-05-07T07:12:03.667Z,10.60
2023-05-07T07:13:03.337Z,10.60
2023-05-07T07:14:03.161Z,10.60
2023-05-07T07:15:03.672Z,10.60
2023-05-07T07:16:03.298Z,10.60
2023-05-07T07:17:04.115Z,10.60
2023-05-07T07:19:03.382Z,10.60
2023-05-07T07:20:03.983Z,10.70
2023-05-07T07:21:03.595Z,10.70
2023-05-07T07:22:03.265Z,10.70
2023-05-07T07:23:04.046Z,10.70
2023-05-07T07:24:03.765Z,10.70
2023-05-07T07:25:04.124Z,10.70
2023-05-07T07:26:06.510Z,10.70
2023-05-07T07:27:04.097Z,10.70
2023-05-07T07:28:06.177Z,10.70
2023-05-07T07:29:06.242Z,10.70
2023-05-07T07:30:03.749Z,10.70
2023-05-07T07:31:03.315Z,10.70
2023-05-07T07:32:06.569Z,10.80
2023-05-07T07:33:06.731Z,10.80
2023-05-07T07:34:05.949Z,10.80
2023-05-07T07:35:05.917Z,10.80
2023-05-07T07:36:03.380Z,10.80
2023-05-07T07:37:03.972Z,10.80
2023-05-07T07:39:03.282Z,10.80
2023-05-07T07:40:03.851Z,10.90
2023-05-07T07:41:03.506Z,10.80
2023-05-07T07:42:04.070Z,10.80
2023-05-07T07:43:06.165Z,10.90
2023-05-07T07:44:03.590Z,10.90
2023-05-07T07:45:05.708Z,11.00
2023-05-07T07:46:03.199Z,10.90
2023-05-07T07:47:04.084Z,11.00
2023-05-07T07:48:06.145Z,11.00
2023-05-07T07:49:04.139Z,11.00
2023-05-07T07:50:03.697Z,11.00
2023-05-07T07:51:05.904Z,11.00
2023-05-07T07:52:06.097Z,11.00
2023-05-07T07:53:06.138Z,11.00
2023-05-07T07:54:06.154Z,11.00
2023-05-07T07:55:06.182Z,11.00
2023-05-07T07:56:05.696Z,11.00
2023-05-07T07:57:03.457Z,11.00
2023-05-07T07:58:04.056Z,11.10
2023-05-07T07:59:06.239Z,11.10
2023-05-07T08:00:09.013Z,11.10
2023-05-07T08:01:03.838Z,11.10
2023-05-07T08:02:03.527Z,11.20
2023-05-07T08:04:04.255Z,11.20
2023-05-07T08:05:06.653Z,11.20
2023-05-07T08:06:08.303Z,11.20
2023-05-07T08:07:03.799Z,11.20
2023-05-07T08:08:08.553Z,11.30
2023-05-07T08:09:06.754Z,11.30
2023-05-07T08:11:03.400Z,11.40
2023-05-07T08:12:06.680Z,11.40
2023-05-07T08:14:03.366Z,11.40
2023-05-07T08:15:04.045Z,11.40
2023-05-07T08:16:03.657Z,11.50
2023-05-07T08:17:03.422Z,11.40
2023-05-07T08:18:03.308Z,11.50
2023-05-07T08:19:04.088Z,11.50
2023-05-07T08:20:03.772Z,11.60
2023-05-07T08:21:05.961Z,11.70
2023-05-07T08:22:03.401Z,11.60
2023-05-07T08:23:03.972Z,11.60
2023-05-07T08:24:03.728Z,11.60
2023-05-07T08:25:03.460Z,11.70
2023-05-07T08:26:04.077Z,11.70
2023-05-07T08:27:03.718Z,11.70
2023-05-07T08:28:03.313Z,11.70
2023-05-07T08:29:06.552Z,11.60
2023-05-07T08:30:03.974Z,11.70
2023-05-07T08:31:03.663Z,11.60
2023-05-07T08:32:11.243Z,11.60
2023-05-07T08:33:03.687Z,11.60
2023-05-07T08:34:07.109Z,11.60
2023-05-07T08:35:03.405Z,11.60
2023-05-07T08:36:03.986Z,11.60
2023-05-07T08:37:04.534Z,11.60
2023-05-07T08:38:05.872Z,11.60
2023-05-07T08:39:05.930Z,11.70
2023-05-07T08:40:03.371Z,11.70
2023-05-07T08:41:03.608Z,11.70
2023-05-07T08:42:05.848Z,11.70
2023-05-07T08:43:03.478Z,11.70
2023-05-07T08:44:04.104Z,11.70
2023-05-07T08:45:03.793Z,11.70
2023-05-07T08:46:10.141Z,11.70
2023-05-07T08:47:07.466Z,11.70
2023-05-07T08:49:03.354Z,11.70
2023-05-07T08:50:06.586Z,11.70
2023-05-07T08:51:04.135Z,11.90
2023-05-07T08:52:04.114Z,11.70
2023-05-07T08:54:03.680Z,11.70
2023-05-07T08:55:03.429Z,11.70
2023-05-07T08:56:04.064Z,11.70
2023-05-07T08:57:06.168Z,11.80
2023-05-07T08:58:03.613Z,11.80
2023-05-07T08:59:05.707Z,11.80
2023-05-07T09:00:03.333Z,11.80
2023-05-07T09:01:04.012Z,11.90
2023-05-07T09:02:03.877Z,11.90
2023-05-07T09:03:03.632Z,11.90
2023-05-07T09:05:03.928Z,12.00
2023-05-07T09:06:08.725Z,12.00
2023-05-07T09:07:03.187Z,12.00
2023-05-07T09:08:03.773Z,12.00
2023-05-07T09:09:05.919Z,12.10
2023-05-07T09:10:03.376Z,12.10
2023-05-07T09:11:03.921Z,12.10
2023-05-07T09:12:06.103Z,12.20
2023-05-07T09:13:06.185Z,12.20
2023-05-07T09:14:03.817Z,12.20
2023-05-07T09:15:06.023Z,12.30
2023-05-07T09:16:03.532Z,12.30
2023-05-07T09:17:04.214Z,12.30
2023-05-07T09:19:03.537Z,12.30
2023-05-07T09:20:08.644Z,12.30
2023-05-07T09:21:03.576Z,12.30
2023-05-07T09:22:10.853Z,12.40
2023-05-07T09:23:03.422Z,12.40
2023-05-07T09:24:06.625Z,12.40
2023-05-07T09:25:04.260Z,12.40
2023-05-07T09:26:03.908Z,12.40
2023-05-07T09:28:03.569Z,12.50
2023-05-07T09:29:06.730Z,12.50
2023-05-07T09:30:05.885Z,12.50
2023-05-07T09:31:03.538Z,12.50
2023-05-07T09:32:06.675Z,12.60
2023-05-07T09:33:06.474Z,12.60
2023-05-07T09:34:04.325Z,12.60
2023-05-07T09:35:04.161Z,12.60
2023-05-07T09:36:06.268Z,12.60
2023-05-07T09:37:03.792Z,12.60
2023-05-07T09:38:04.256Z,12.60
2023-05-07T09:39:03.241Z,12.60
2023-05-07T09:40:06.488Z,12.60
2023-05-07T09:41:04.031Z,12.60
2023-05-07T09:42:06.330Z,12.60
2023-05-07T09:43:03.950Z,12.60
2023-05-07T09:44:07.546Z,12.60
2023-05-07T09:45:05.926Z,12.60
2023-05-07T09:46:03.351Z,12.60
2023-05-07T09:47:06.517Z,12.70
2023-05-07T09:48:03.984Z,12.70
2023-05-07T09:49:03.662Z,12.70
2023-05-07T09:50:10.907Z,12.70
2023-05-07T09:51:03.362Z,12.70
2023-05-07T09:52:06.683Z,12.80
2023-05-07T09:53:05.806Z,12.80
2023-05-07T09:54:05.781Z,12.80
2023-05-07T09:55:03.347Z,12.80
2023-05-07T09:56:05.115Z,12.80
2023-05-07T09:58:05.909Z,12.80
2023-05-07T09:59:03.506Z,12.80
2023-05-07T10:00:05.811Z,12.90
2023-05-07T10:01:03.269Z,12.90
2023-05-07T10:02:04.973Z,12.90
2023-05-07T10:04:05.978Z,12.90
2023-05-07T10:05:03.602Z,12.90
2023-05-07T10:06:05.904Z,13.00
2023-05-07T10:07:03.464Z,13.00
2023-05-07T10:08:04.927Z,13.10
2023-05-07T10:10:03.476Z,13.10
2023-05-07T10:11:04.074Z,13.00
2023-05-07T10:12:06.179Z,13.10
2023-05-07T10:13:03.850Z,13.00
2023-05-07T10:14:04.907Z,13.00
2023-05-07T10:15:03.660Z,13.00
2023-05-07T10:16:05.930Z,13.00
2023-05-07T10:17:08.516Z,13.00
2023-05-07T10:18:04.289Z,13.00
2023-05-07T10:19:06.644Z,13.10
2023-05-07T10:21:04.084Z,13.00
2023-05-07T10:22:03.843Z,13.00
2023-05-07T10:23:03.544Z,13.00
2023-05-07T10:24:06.664Z,13.10
2023-05-07T10:25:07.815Z,13.10
2023-05-07T10:26:06.111Z,13.10
2023-05-07T10:27:06.134Z,13.10
2023-05-07T10:28:03.563Z,13.10
2023-05-07T10:29:04.176Z,13.10
2023-05-07T10:30:08.904Z,13.10
2023-05-07T10:31:08.842Z,13.10
2023-05-07T10:32:06.082Z,13.10
2023-05-07T10:33:03.620Z,13.10
2023-05-07T10:34:05.834Z,13.00
2023-05-07T10:35:08.421Z,13.10
2023-05-07T10:36:04.179Z,13.10
2023-05-07T10:37:04.082Z,13.10
2023-05-07T10:38:03.830Z,13.10
2023-05-07T10:39:05.979Z,13.10
2023-05-07T10:40:03.513Z,13.10
2023-05-07T10:41:05.731Z,13.10
2023-05-07T10:42:03.279Z,13.10
2023-05-07T10:43:09.448Z,13.10
2023-05-07T10:44:03.562Z,13.10
2023-05-07T10:45:05.755Z,13.10
2023-05-07T10:46:03.208Z,13.10
2023-05-07T10:47:03.860Z,13.10
2023-05-07T10:48:05.525Z,13.10
2023-05-07T10:49:03.880Z,13.20
2023-05-07T10:50:08.498Z,13.20
2023-05-07T10:51:04.079Z,13.20
2023-05-07T10:52:03.614Z,13.30
2023-05-07T10:53:05.715Z,13.40
2023-05-07T10:54:03.240Z,13.40
2023-05-07T10:55:03.925Z,13.50
2023-05-07T10:57:06.695Z,13.50
2023-05-07T10:58:05.708Z,13.50
2023-05-07T10:59:03.209Z,13.50
2023-05-07T11:00:06.437Z,13.60
2023-05-07T11:01:03.930Z,13.60
2023-05-07T11:02:03.696Z,13.60
2023-05-07T11:03:03.776Z,13.70
2023-05-07T11:05:05.750Z,13.80
2023-05-07T11:06:03.311Z,13.80
2023-05-07T11:07:03.596Z,13.90
2023-05-07T11:08:03.309Z,13.90
2023-05-07T11:09:06.457Z,14.10
2023-05-07T11:10:03.944Z,14.10
2023-05-07T11:11:08.677Z,14.20
2023-05-07T11:13:03.908Z,14.30
2023-05-07T11:14:06.254Z,14.30
2023-05-07T11:15:03.831Z,14.30
2023-05-07T11:16:04.090Z,14.30
2023-05-07T11:18:03.493Z,14.30
2023-05-07T11:19:04.062Z,14.30
2023-05-07T11:20:06.272Z,14.20
2023-05-07T11:21:03.831Z,14.30
2023-05-07T11:22:03.488Z,14.20
2023-05-07T11:23:04.080Z,14.30
2023-05-07T11:24:06.527Z,14.30
2023-05-07T11:25:03.948Z,14.20
2023-05-07T11:26:06.049Z,14.30
2023-05-07T11:28:03.174Z,14.30
2023-05-07T11:29:03.776Z,14.30
2023-05-07T11:30:05.947Z,14.30
2023-05-07T11:31:03.367Z,14.30
2023-05-07T11:32:03.987Z,14.30
2023-05-07T11:33:04.095Z,14.30
2023-05-07T11:36:03.921Z,14.40
2023-05-07T11:37:03.520Z,14.40
2023-05-07T11:38:03.217Z,14.50
2023-05-07T11:39:03.818Z,14.50
2023-05-07T11:40:05.993Z,14.60
2023-05-07T11:41:03.525Z,14.60
2023-05-07T11:42:03.274Z,14.70
2023-05-07T11:43:03.960Z,14.70
2023-05-07T11:44:08.806Z,14.70
2023-05-07T11:45:05.907Z,14.70
2023-05-07T11:46:08.604Z,14.70
2023-05-07T11:47:05.924Z,14.70
2023-05-07T11:48:03.442Z,14.70
2023-05-07T11:49:06.622Z,14.80
2023-05-07T11:50:06.765Z,14.80
2023-05-07T11:52:06.097Z,14.80
2023-05-07T11:53:05.874Z,14.80
2023-05-07T11:54:05.966Z,14.90
2023-05-07T11:55:06.075Z,14.90
2023-05-07T11:56:03.548Z,14.90
2023-05-07T11:57:05.709Z,14.90
2023-05-07T11:58:03.257Z,14.90
2023-05-07T11:59:08.996Z,15.00
2023-05-07T12:01:06.753Z,15.10
2023-05-07T12:02:05.962Z,15.10
2023-05-07T12:03:03.742Z,15.10
2023-05-07T12:04:03.552Z,15.10
2023-05-07T12:05:03.354Z,15.20
2023-05-07T12:06:03.984Z,15.20
2023-05-07T12:07:06.102Z,15.30
2023-05-07T12:08:06.189Z,15.30
2023-05-07T12:09:08.705Z,15.30
2023-05-07T12:10:04.126Z,15.30
2023-05-07T12:12:05.755Z,15.30
2023-05-07T12:13:05.879Z,15.40
2023-05-07T12:14:03.839Z,15.40
2023-05-07T12:15:06.490Z,15.50
2023-05-07T12:16:03.956Z,15.50
2023-05-07T12:17:06.280Z,15.60
2023-05-07T12:18:06.408Z,15.60
2023-05-07T12:19:06.627Z,15.60
2023-05-07T12:20:04.081Z,15.50
2023-05-07T12:21:06.294Z,15.50
2023-05-07T12:22:03.792Z,15.50
2023-05-07T12:23:03.450Z,15.50
2023-05-07T12:24:04.047Z,15.50
2023-05-07T12:25:03.734Z,15.40
2023-05-07T12:26:05.096Z,15.40
2023-05-07T12:28:03.741Z,15.40
2023-05-07T12:29:08.483Z,15.30
2023-05-07T12:30:03.945Z,15.40
2023-05-07T12:31:06.144Z,15.40
2023-05-07T12:32:05.133Z,15.30
2023-05-07T12:34:03.397Z,15.40
2023-05-07T12:35:06.515Z,15.40
2023-05-07T12:36:04.032Z,15.40
2023-05-07T12:37:06.239Z,15.50
2023-05-07T12:38:03.793Z,15.40
2023-05-07T12:39:05.911Z,15.60
2023-05-07T12:40:05.882Z,15.50
2023-05-07T12:41:08.486Z,15.50
2023-05-07T12:42:04.089Z,15.60
2023-05-07T12:43:03.767Z,15.50
2023-05-07T12:44:03.437Z,15.50
2023-05-07T12:45:04.000Z,15.50
2023-05-07T12:47:03.736Z,15.50
2023-05-07T12:48:03.370Z,15.50
2023-05-07T12:49:03.987Z,15.50
2023-05-07T12:50:06.089Z,15.40
2023-05-07T12:51:06.023Z,15.30
2023-05-07T12:52:03.498Z,15.40
2023-05-07T12:53:04.086Z,15.30
2023-05-07T12:54:06.257Z,15.40
2023-05-07T12:55:03.678Z,15.30
2023-05-07T12:56:03.280Z,15.30
2023-05-07T12:57:03.904Z,15.30
2023-05-07T12:58:03.634Z,15.30
2023-05-07T12:59:03.387Z,15.30
2023-05-07T13:00:06.668Z,15.30
2023-05-07T13:01:05.758Z,15.40
2023-05-07T13:02:03.280Z,15.40
2023-05-07T13:03:05.928Z,15.50
2023-05-07T13:04:03.700Z,15.50
2023-05-07T13:05:06.020Z,15.50
2023-05-07T13:06:03.508Z,15.50
2023-05-07T13:07:04.168Z,15.50
2023-05-07T13:08:06.342Z,15.60
2023-05-07T13:09:06.353Z,15.60
2023-05-07T13:10:06.436Z,15.70
2023-05-07T13:11:06.515Z,15.80
2023-05-07T13:12:03.913Z,15.80
2023-05-07T13:13:05.973Z,15.80
2023-05-07T13:14:06.010Z,15.90
2023-05-07T13:15:05.994Z,15.90
2023-05-07T13:16:03.490Z,15.90
2023-05-07T13:17:04.218Z,16.00
2023-05-07T13:18:06.517Z,16.10
2023-05-07T13:20:06.358Z,16.10
2023-05-07T13:21:03.904Z,16.10
2023-05-07T13:22:06.100Z,16.10
2023-05-07T13:23:03.598Z,16.10
2023-05-07T13:24:04.156Z,16.00
2023-05-07T13:25:03.700Z,16.10
2023-05-07T13:26:06.374Z,16.10
2023-05-07T13:27:03.932Z,16.20
2023-05-07T13:28:10.508Z,16.20
2023-05-07T13:29:05.762Z,16.30
2023-05-07T13:30:03.191Z,16.20
2023-05-07T13:31:06.424Z,16.30
2023-05-07T13:32:06.457Z,16.30
2023-05-07T13:33:04.084Z,16.30
2023-05-07T13:34:08.737Z,16.20
2023-05-07T13:35:05.728Z,16.20
2023-05-07T13:36:03.213Z,16.20
2023-05-07T13:37:06.475Z,16.20
2023-05-07T13:38:03.994Z,16.10
2023-05-07T13:39:08.690Z,16.10
2023-05-07T13:40:06.055Z,15.90
2023-05-07T13:41:03.672Z,16.10
2023-05-07T13:42:05.958Z,16.00
2023-05-07T13:43:06.107Z,15.90
2023-05-07T13:44:06.142Z,15.90
2023-05-07T13:45:11.212Z,15.90
2023-05-07T13:46:06.310Z,15.90
2023-05-07T13:47:03.811Z,15.90
2023-05-07T13:49:04.130Z,15.90
2023-05-07T13:50:03.667Z,15.90
2023-05-07T13:51:05.848Z,15.80
2023-05-07T13:52:05.848Z,15.80
2023-05-07T13:53:03.364Z,15.90
2023-05-07T13:54:03.904Z,15.80
2023-05-07T13:55:03.440Z,15.80
2023-05-07T13:56:04.084Z,15.90
2023-05-07T13:58:07.356Z,15.80
2023-05-07T13:59:04.197Z,15.80
2023-05-07T14:00:03.853Z,15.80
2023-05-07T14:02:03.189Z,15.80
2023-05-07T14:03:03.965Z,15.80
2023-05-07T14:04:03.610Z,15.80